Time;durP1;ratioP1;P1;durP2;ratioP2;P2;SDS_P1;SDS_P2;PMS_P1;PMS_P2;Temp;Humidity;BMP_temperature;BMP_pressure;BME280_temperature;BME280_humidity;BME280_pressure;Samples;Min_cycle;Max_cycle;Signal;HPM_P1;HPM_P2
2022/06/19 00:01:16;;;;;;;7.37;2.00;;;;;;;-146.64;91.24;38568.34;5051136;28;20408;-71
2022/06/19 00:03:46;;;;;;;13.40;2.87;;;;;;;-146.64;91.39;38568.34;5051993;28;20056;-72
2022/06/19 00:06:12;;;;;;;10.60;1.80;;;;;;;-146.64;91.76;38574.47;5054333;28;20131;-71
2022/06/19 00:08:37;;;;;;;12.60;2.10;;;;;;;-146.64;91.34;38558.09;5064139;28;20107;-69
2022/06/19 00:11:04;;;;;;;15.10;2.37;;;;;;;-146.64;90.07;38535.59;5070257;28;20071;-69
2022/06/19 00:13:29;;;;;;;7.57;1.73;;;;;;;-146.64;89.77;38576.53;5067745;28;20036;-70
2022/06/19 00:15:54;;;;;;;16.97;2.03;;;;;;;-146.64;89.03;38580.63;5070712;28;20472;-73
2022/06/19 00:18:20;;;;;;;10.07;1.83;;;;;;;-146.64;88.06;38588.81;5065284;28;20047;-72
2022/06/19 00:20:46;;;;;;;9.33;1.60;;;;;;;-146.64;87.32;38594.94;5065390;28;20077;-70
2022/06/19 00:23:11;;;;;;;9.93;1.50;;;;;;;-146.64;87.68;38588.81;5064979;28;20025;-70
2022/06/19 00:25:37;;;;;;;7.30;2.17;;;;;;;-146.64;87.79;38601.06;5065832;28;20443;-72
2022/06/19 00:28:04;;;;;;;7.80;1.33;;;;;;;-146.64;88.24;38613.34;5068948;28;20077;-73
2022/06/19 00:30:30;;;;;;;8.48;1.70;;;;;;;-146.64;88.67;38576.53;5070718;28;20176;-70
2022/06/19 00:32:57;;;;;;;10.77;2.10;;;;;;;-146.64;90.44;38601.06;5051973;28;20047;-70
2022/06/19 00:35:22;;;;;;;16.85;1.98;;;;;;;-146.64;95.79;38506.94;5068773;28;20032;-71
2022/06/19 00:37:47;;;;;;;21.47;2.87;;;;;;;-146.64;100.00;38326.88;5067062;28;20407;-72
2022/06/19 00:40:13;;;;;;;14.00;1.93;;;;;;;-146.64;100.00;38122.28;5064727;28;20028;-71
2022/06/19 00:42:39;;;;;;;15.43;3.70;;;;;;;-146.64;100.00;38283.94;5056963;28;20111;-71
2022/06/19 00:45:05;;;;;;;10.77;2.23;;;;;;;-146.64;100.00;38345.31;5055824;28;20435;-71
2022/06/19 00:47:35;;;;;;;8.83;1.57;;;;;;;-146.64;100.00;38376.00;5045841;28;20441;-71
2022/06/19 00:50:18;;;;;;;11.18;1.95;;;;;;;-146.64;100.00;38427.16;5065820;28;20032;-72
2022/06/19 00:52:44;;;;;;;17.33;2.22;;;;;;;-146.64;99.57;38433.28;5051353;28;20051;-74
2022/06/19 00:55:14;;;;;;;14.93;2.57;;;;;;;-146.64;97.60;38480.34;5054679;28;20033;-75
2022/06/19 00:57:41;;;;;;;24.63;2.25;;;;;;;-146.64;95.98;38502.84;5071091;28;20552;-74
2022/06/19 01:00:13;;;;;;;12.32;2.10;;;;;;;-146.64;95.23;38531.50;5070235;28;20035;-75
2022/06/19 01:02:40;;;;;;;16.77;1.67;;;;;;;-146.64;94.70;38513.09;5069379;28;20051;-74
2022/06/19 01:05:06;;;;;;;13.98;2.20;;;;;;;-146.64;94.18;38535.59;5067878;28;20202;-75
2022/06/19 01:07:32;;;;;;;9.43;1.60;;;;;;;-146.64;94.34;38509.00;5050967;28;20173;-74
2022/06/19 01:09:57;;;;;;;4.97;1.40;;;;;;;-146.64;95.20;38513.09;5062526;28;20640;-75
2022/06/19 01:12:24;;;;;;;8.73;2.00;;;;;;;-146.64;96.74;38509.00;5069382;28;20043;-74
2022/06/19 01:14:58;;;;;;;4.80;1.52;;;;;;;-146.64;97.84;38463.97;5044372;28;20033;-74
2022/06/19 01:17:24;;;;;;;12.32;2.03;;;;;;;-146.64;98.55;38466.03;5056177;28;20035;-74
2022/06/19 01:19:49;;;;;;;12.40;1.97;;;;;;;-146.64;99.72;38463.97;5080695;28;20024;-74
2022/06/19 01:22:43;;;;;;;13.23;1.73;;;;;;;-146.64;100.00;38437.38;5087791;28;20028;-74
2022/06/19 01:25:16;;;;;;;9.85;1.52;;;;;;;-146.64;100.00;38433.28;5049369;28;20028;-74
2022/06/19 01:30:30;;;;;;;12.35;2.13;;;;;;;-146.64;99.54;38509.00;5069595;28;20085;-74
2022/06/19 01:32:57;;;;;;;13.25;1.60;;;;;;;-146.64;98.99;38498.75;5070676;28;20552;-74
2022/06/19 01:35:22;;;;;;;;;;;;;;;-146.64;97.89;38519.22;5053619;28;20471;-73
2022/06/19 01:37:48;;;;;;;7.72;1.40;;;;;;;-146.64;97.15;38494.69;5078377;28;19923;-74
2022/06/19 01:40:20;;;;;;;7.87;1.23;;;;;;;-146.64;94.63;38531.50;5058709;28;20032;-74
2022/06/19 01:42:46;;;;;;;9.13;1.40;;;;;;;-146.64;92.73;38506.94;5076434;28;20040;-74
2022/06/19 01:45:12;;;;;;;7.53;1.63;;;;;;;-146.64;90.08;38482.41;5077021;28;20047;-74
2022/06/19 01:47:37;;;;;;;9.53;1.13;;;;;;;-146.64;88.40;38580.63;5050738;28;20465;-74
2022/06/19 01:50:07;;;;;;;7.93;1.43;;;;;;;-146.64;85.81;38588.81;5064186;28;20061;-73
2022/06/19 01:52:33;;;;;;;7.60;1.27;;;;;;;-146.64;82.90;38644.03;5069429;28;20032;-74
2022/06/19 01:55:14;;;;;;;17.58;1.88;;;;;;;-146.64;83.03;38644.03;5060884;28;20044;-74
2022/06/19 01:57:43;;;;;;;11.68;2.08;;;;;;;-146.64;82.20;38650.19;5081301;28;20175;-74
2022/06/19 02:00:20;;;;;;;9.55;1.30;;;;;;;-146.64;81.28;38633.81;5053102;28;20503;-74
2022/06/19 02:02:47;;;;;;;9.82;1.20;;;;;;;-146.64;82.07;38646.09;5066473;28;20125;-74
2022/06/19 02:05:13;;;;;;;9.02;1.20;;;;;;;-146.64;83.64;38637.91;5073169;28;20097;-75
2022/06/19 02:07:38;;;;;;;9.10;1.47;;;;;;;-146.64;85.20;38650.19;5072455;28;20495;-73
2022/06/19 02:10:04;;;;;;;20.13;1.43;;;;;;;-146.64;85.99;38646.09;5071628;28;20020;-74
2022/06/19 02:12:31;;;;;;;7.40;1.52;;;;;;;-146.64;86.98;38621.53;5072298;28;20020;-75
2022/06/19 02:14:57;;;;;;;10.35;1.35;;;;;;;-146.64;87.00;38650.19;5055964;28;20083;-74
2022/06/19 02:17:27;;;;;;;5.53;1.10;;;;;;;-146.64;88.37;38650.19;5075227;28;20024;-74
2022/06/19 02:19:52;;;;;;;10.00;2.20;;;;;;;-146.64;89.13;38621.53;5071321;28;20032;-74
2022/06/19 02:22:18;;;;;;;11.10;1.77;;;;;;;-146.64;90.68;38611.31;5069296;28;20039;-75
2022/06/19 02:24:43;;;;;;;4.50;1.20;;;;;;;-146.64;92.63;38615.41;5072142;28;20414;-74
2022/06/19 02:27:09;;;;;;;15.40;2.37;;;;;;;-146.64;94.94;38556.06;5083544;28;20024;-73
2022/06/19 02:29:36;;;;;;;13.17;1.93;;;;;;;-146.64;97.53;38556.06;5053082;28;20024;-74
2022/06/19 02:32:03;;;;;;;12.77;2.08;;;;;;;-146.64;99.30;38498.75;5054317;28;20054;-74
2022/06/19 02:34:32;;;;;;;9.95;1.70;;;;;;;-146.64;99.06;38527.41;5064054;28;20033;-73
2022/06/19 02:37:00;;;;;;;11.65;1.85;;;;;;;-146.64;98.71;38498.75;5041804;28;20032;-75
2022/06/19 02:39:34;;;;;;;12.15;1.73;;;;;;;-146.64;99.07;38531.50;5048671;28;20422;-73
2022/06/19 02:42:06;;;;;;;12.65;2.38;;;;;;;-146.64;99.12;38496.72;5063699;28;20032;-74
2022/06/19 02:44:37;;;;;;;13.43;2.03;;;;;;;-146.64;99.78;38482.41;5077188;28;20055;-74
2022/06/19 02:47:04;;;;;;;11.73;2.10;;;;;;;-146.64;100.00;38509.00;5059455;28;20048;-74
2022/06/19 02:49:29;;;;;;;16.48;1.92;;;;;;;-146.64;100.00;38476.25;5067732;28;20081;-74
2022/06/19 02:51:55;;;;;;;20.47;2.23;;;;;;;-146.64;100.00;38466.03;5083143;28;20063;-72
2022/06/19 02:54:20;;;;;;;11.77;2.17;;;;;;;-146.64;100.00;38486.50;5056629;28;20028;-74
2022/06/19 02:56:45;;;;;;;11.93;2.17;;;;;;;-146.64;99.67;38498.75;5065851;28;20035;-75
2022/06/19 02:59:11;;;;;;;11.03;2.13;;;;;;;-146.64;100.00;38506.94;5068693;28;20103;-73
2022/06/19 03:01:36;;;;;;;15.87;3.27;;;;;;;-146.64;100.00;38494.69;5084887;28;20116;-74
2022/06/19 03:04:01;;;;;;;9.80;1.93;;;;;;;-146.64;100.00;38466.03;5069115;28;20020;-74
2022/06/19 03:06:27;;;;;;;12.03;2.00;;;;;;;-146.64;100.00;38461.94;5090378;28;20062;-73
2022/06/19 03:08:53;;;;;;;13.32;2.50;;;;;;;-146.64;100.00;38457.84;5070249;28;20039;-74
2022/06/19 03:11:18;;;;;;;14.57;2.73;;;;;;;-146.64;100.00;38515.13;5070261;28;20115;-74
2022/06/19 03:13:43;;;;;;;11.90;1.93;;;;;;;-146.64;100.00;38425.09;5051071;28;20029;-73
2022/06/19 03:16:10;;;;;;;13.60;2.70;;;;;;;-146.64;100.00;38453.75;5052628;28;20038;-74
2022/06/19 03:18:36;;;;;;;13.35;2.55;;;;;;;-146.64;100.00;38461.94;5063362;28;20036;-75
2022/06/19 03:21:02;;;;;;;15.88;2.35;;;;;;;-146.64;100.00;38470.13;5052065;28;20040;-73
2022/06/19 03:23:27;;;;;;;17.77;2.40;;;;;;;-146.64;100.00;38466.03;5072010;28;20123;-74
2022/06/19 03:25:53;;;;;;;15.60;2.40;;;;;;;-146.64;100.00;38437.38;5068524;28;20249;-74
2022/06/19 03:28:18;;;;;;;15.43;3.20;;;;;;;-146.64;100.00;38412.81;5053513;28;20072;-74
2022/06/19 03:30:44;;;;;;;18.17;1.83;;;;;;;-146.64;100.00;38412.81;5052152;28;20089;-74
2022/06/19 03:33:09;;;;;;;13.33;2.33;;;;;;;-146.64;100.00;38412.81;5068053;28;20085;-72
2022/06/19 03:35:34;;;;;;;10.20;1.87;;;;;;;-146.64;100.00;38433.28;5051550;28;20028;-74
2022/06/19 03:38:00;;;;;;;13.37;2.23;;;;;;;-146.64;100.00;38416.91;5049901;28;20526;-74
2022/06/19 03:40:25;;;;;;;20.93;3.13;;;;;;;-146.64;100.00;38388.28;5068376;28;20440;-75
2022/06/19 03:42:50;;;;;;;11.87;2.63;;;;;;;-146.64;100.00;38363.72;5071045;28;20090;-74
2022/06/19 03:45:16;;;;;;;9.47;1.80;;;;;;;-146.64;100.00;38324.84;5071153;28;20367;-74
2022/06/19 03:47:41;;;;;;;19.83;3.17;;;;;;;-146.64;100.00;38318.72;5088490;28;20313;-73
2022/06/19 03:50:08;;;;;;;12.77;1.90;;;;;;;-146.64;100.00;38294.16;5064686;28;20430;-74
2022/06/19 03:52:33;;;;;;;17.08;2.45;;;;;;;-146.64;100.00;38118.19;5064347;28;20471;-74
2022/06/19 03:54:59;;;;;;;17.60;2.23;;;;;;;-146.64;100.00;37889.06;5068444;28;20028;-74
2022/06/19 03:57:24;;;;;;;16.97;2.90;;;;;;;-146.64;100.00;37809.25;5052941;28;20530;-75
2022/06/19 03:59:50;;;;;;;17.80;2.87;;;;;;;-146.64;100.00;39632.50;5064342;28;20032;-75
2022/06/19 04:02:15;;;;;;;15.50;2.77;;;;;;;-146.64;100.00;48412.69;5077638;28;20077;-74
2022/06/19 04:04:41;;;;;;;24.40;2.67;;;;;;;-146.64;100.00;47988.06;5054986;28;20032;-75
2022/06/19 04:07:09;;;;;;;17.67;2.50;;;;;;;-146.64;100.00;48164.47;5077063;28;20067;-74
2022/06/19 04:09:34;;;;;;;16.75;2.50;;;;;;;-146.64;100.00;45316.38;5051371;28;20039;-74
2022/06/19 04:11:59;;;;;;;11.90;2.33;;;;;;;-146.64;100.00;45810.41;5066077;28;20486;-74
2022/06/19 04:14:25;;;;;;;14.70;2.57;;;;;;;-146.64;100.00;40062.34;5067731;28;20062;-74
2022/06/19 04:16:50;;;;;;;11.37;2.03;;;;;;;-146.64;100.00;38228.69;5070936;28;20042;-73
2022/06/19 04:19:15;;;;;;;12.87;2.57;;;;;;;-146.64;100.00;38126.38;5077600;28;20432;-74
2022/06/19 04:21:44;;;;;;;12.00;2.57;;;;;;;-146.64;100.00;38130.47;5054136;28;20142;-74
2022/06/19 04:24:11;;;;;;;19.38;2.65;;;;;;;-146.64;100.00;38257.31;5067498;28;20023;-74
2022/06/19 04:26:38;;;;;;;13.77;2.38;;;;;;;-146.64;100.00;38296.19;5061652;28;20024;-74
2022/06/19 04:29:04;;;;;;;10.57;2.25;;;;;;;-146.64;100.00;38277.78;5052819;28;20127;-73
2022/06/19 04:31:30;;;;;;;17.00;1.80;;;;;;;-146.64;100.00;38359.63;5071355;28;20114;-73
2022/06/19 04:33:55;;;;;;;12.13;1.97;;;;;;;-146.64;100.00;38324.84;5064426;28;20372;-74
2022/06/19 04:36:24;;;;;;;15.17;1.87;;;;;;;-146.64;100.00;38394.41;5070169;28;20027;-72
2022/06/19 04:38:50;;;;;;;12.32;2.53;;;;;;;-146.64;100.00;38330.97;5050219;28;20035;-74
2022/06/19 04:41:20;;;;;;;11.05;1.98;;;;;;;-146.64;100.00;38269.59;5058163;28;20037;-73
2022/06/19 04:43:46;;;;;;;13.70;2.90;;;;;;;-146.64;100.00;38220.50;5066568;28;20352;-74
2022/06/19 04:46:12;;;;;;;15.70;2.20;;;;;;;-146.64;100.00;38232.78;5079312;28;20479;-75
2022/06/19 04:48:38;;;;;;;15.33;2.60;;;;;;;-146.64;100.00;37927.94;5067790;28;20034;-72
2022/06/19 04:51:04;;;;;;;13.93;2.00;;;;;;;-146.64;100.00;38148.88;5066583;28;20514;-74
2022/06/19 04:53:29;;;;;;;16.47;2.00;;;;;;;-146.64;100.00;37970.88;5070346;28;20059;-74
2022/06/19 04:55:54;;;;;;;19.67;2.57;;;;;;;-146.64;100.00;37970.88;5075057;28;20105;-73
2022/06/19 04:58:23;;;;;;;14.27;3.20;;;;;;;-146.64;100.00;37927.94;5065929;28;20036;-74
2022/06/19 05:00:50;;;;;;;13.27;2.53;;;;;;;-146.64;100.00;37827.69;5072691;28;20402;-73
2022/06/19 05:03:15;;;;;;;;;;;;;;;-146.64;100.00;37733.56;5069104;28;20020;-72
2022/06/19 05:05:41;;;;;;;10.55;2.22;;;;;;;-146.64;100.00;38101.81;5052145;28;20387;-74
2022/06/19 05:08:06;;;;;;;11.63;2.70;;;;;;;-146.64;100.00;37934.06;5066071;28;20036;-74
2022/06/19 05:10:31;;;;;;;9.87;2.10;;;;;;;-146.64;100.00;37876.78;5079854;28;20032;-74
2022/06/19 05:12:57;;;;;;;10.57;2.20;;;;;;;-146.64;100.00;37823.59;5056165;28;20028;-74
2022/06/19 05:15:22;;;;;;;12.73;2.20;;;;;;;-146.64;100.00;37925.88;5050612;28;20024;-73
2022/06/19 05:17:48;;;;;;;15.27;2.30;;;;;;;-146.64;100.00;37790.84;5065867;28;20028;-73
2022/06/19 05:20:13;;;;;;;14.67;2.77;;;;;;;-146.64;100.00;37819.50;5054130;28;20032;-72
2022/06/19 05:22:39;;;;;;;18.67;2.80;;;;;;;-146.64;100.00;37823.59;5079647;28;20024;-74
2022/06/19 05:25:08;;;;;;;16.67;2.87;;;;;;;-146.64;100.00;38298.25;5067406;28;20048;-74
2022/06/19 05:27:37;;;;;;;10.05;1.55;;;;;;;-146.64;100.00;39808.53;5066645;28;20060;-73
2022/06/19 05:30:05;;;;;;;17.15;2.47;;;;;;;-146.64;100.00;45691.50;5054746;28;20028;-74
2022/06/19 05:32:30;;;;;;;14.65;2.17;;;;;;;-146.64;100.00;53727.13;5070035;28;20461;-74
2022/06/19 05:34:56;;;;;;;15.30;2.13;;;;;;;-146.64;100.00;57146.59;5071437;28;20110;-74
2022/06/19 05:37:21;;;;;;;15.13;2.53;;;;;;;-146.64;100.00;59515.66;5077277;28;20056;-74
2022/06/19 05:39:46;;;;;;;15.40;2.53;;;;;;;-146.64;100.00;65576.34;5086073;28;20104;-74
2022/06/19 05:42:11;;;;;;;12.03;1.87;;;;;;;-146.64;100.00;67158.91;5085177;28;20309;-74
2022/06/19 05:44:37;;;;;;;16.67;2.43;;;;;;;-146.64;100.00;76403.06;5055628;28;20024;-75
2022/06/19 05:47:02;;;;;;;15.47;2.13;;;;;;;-146.64;100.00;84343.66;5070826;28;20020;-75
2022/06/19 05:49:28;;;;;;;12.87;2.33;;;;;;;-146.64;100.00;91503.59;5070092;28;20047;-76
2022/06/19 05:51:53;;;;;;;19.23;3.20;;;;;;;-146.64;100.00;91238.19;5051083;28;20028;-76
2022/06/19 05:54:19;;;;;;;15.23;2.87;;;;;;;-146.64;100.00;95221.19;5046824;28;20073;-76
2022/06/19 05:56:44;;;;;;;14.30;4.07;;;;;;;-146.64;100.00;96815.47;5084474;28;20443;-76
2022/06/19 05:59:09;;;;;;;11.33;3.77;;;;;;;-146.64;100.00;97612.84;5070427;28;20353;-75
2022/06/19 06:01:35;;;;;;;16.50;2.73;;;;;;;-146.64;100.00;97612.84;5070485;28;20039;-74
2022/06/19 06:04:00;;;;;;;19.67;3.03;;;;;;;-146.64;100.00;100271.94;5051548;28;20039;-75
2022/06/19 06:06:29;;;;;;;18.40;3.43;;;;;;;-146.64;100.00;101336.06;5067038;28;20024;-74
2022/06/19 06:08:54;;;;;;;10.77;2.17;;;;;;;-146.64;100.00;102666.59;5038602;28;20031;-75
2022/06/19 06:11:21;;;;;;;18.90;3.70;;;;;;;-146.64;100.00;103465.13;5062783;28;20028;-76
2022/06/19 06:13:47;;;;;;;14.25;2.33;;;;;;;-146.64;100.00;105861.69;5051132;28;20047;-76
2022/06/19 06:16:14;;;;;;;16.47;2.70;;;;;;;-146.64;100.00;107193.69;5054792;28;20024;-76
2022/06/19 06:18:39;;;;;;;12.23;3.40;;;;;;;-146.64;100.00;107726.63;5056215;28;20036;-76
2022/06/19 06:21:16;;;;;;;23.03;3.13;;;;;;;-146.64;100.00;106927.25;5069767;28;20089;-75
2022/06/19 06:23:42;;;;;;;14.18;2.65;;;;;;;-146.64;100.00;108259.63;5063196;28;20114;-75
2022/06/19 06:26:17;;;;;;;22.07;3.50;;;;;;;-146.64;100.00;107993.13;5052413;28;20063;-75
2022/06/19 06:28:44;;;;;;;24.70;3.55;;;;;;;-146.64;100.00;106660.84;5074737;28;20036;-76
2022/06/19 06:31:10;;;;;;;12.90;2.97;;;;;;;-146.64;100.00;106660.84;5064327;28;20016;-74
2022/06/19 06:33:36;;;;;;;20.40;4.53;;;;;;;-146.64;100.00;106927.25;5044038;28;20023;-76
2022/06/19 06:36:02;;;;;;;16.33;2.50;;;;;;;-146.64;100.00;107460.16;5079902;28;20035;-76
2022/06/19 06:38:28;;;;;;;12.37;2.30;;;;;;;-146.64;100.00;108259.63;5079162;28;20047;-75
2022/06/19 06:40:53;;;;;;;20.23;3.40;;;;;;;-146.64;100.00;108792.72;5064609;28;20281;-76
2022/06/19 06:43:20;;;;;;;16.70;3.83;;;;;;;-146.64;100.00;109592.44;5040390;28;20128;-75
2022/06/19 06:45:46;;;;;;;24.45;3.25;;;;;;;-146.64;100.00;109325.84;5043306;28;20032;-77
2022/06/19 06:48:11;;;;;;;20.87;3.70;;;;;;;-146.64;100.00;109325.84;5051231;28;20463;-76
2022/06/19 06:50:38;;;;;;;14.43;2.53;;;;;;;-146.64;100.00;109325.84;5058011;28;20028;-76
2022/06/19 06:53:04;;;;;;;12.27;2.85;;;;;;;-146.64;100.00;108526.16;5046641;28;20430;-75
2022/06/19 06:55:30;;;;;;;16.80;3.57;;;;;;;-146.64;100.00;108259.63;5081646;28;20024;-77
2022/06/19 06:57:55;;;;;;;21.27;2.77;;;;;;;-146.64;100.00;106660.84;5073370;28;20036;-75
2022/06/19 07:00:22;;;;;;;11.53;2.87;;;;;;;-146.64;100.00;108259.63;5074319;28;20025;-76
2022/06/19 07:02:47;;;;;;;;;;;;;;;-146.64;100.00;109325.84;5050922;28;20046;-77
2022/06/19 07:05:13;;;;;;;11.40;2.30;;;;;;;-146.64;100.00;111192.41;5056836;28;19919;-77
2022/06/19 07:07:39;;;;;;;13.70;2.90;;;;;;;-146.64;100.00;111992.59;5050304;28;20032;-77
2022/06/19 07:10:05;;;;;;;15.33;2.67;;;;;;;-146.64;100.00;111992.59;5064620;28;20352;-77
2022/06/19 07:12:30;;;;;;;16.67;2.50;;;;;;;-146.64;100.00;110925.69;5050783;28;20477;-76
2022/06/19 07:14:56;;;;;;;15.30;3.60;;;;;;;-146.64;100.00;110659.00;5076965;28;20035;-76
2022/06/19 07:17:21;;;;;;;19.43;3.10;;;;;;;-146.64;100.00;107993.13;5046903;28;20044;-76
2022/06/19 07:19:47;;;;;;;30.43;3.73;;;;;;;-146.64;100.00;106394.44;5062244;28;20025;-76
2022/06/19 07:22:14;;;;;;;13.60;2.50;;;;;;;-146.64;100.00;106927.25;5075507;28;20380;-75
2022/06/19 07:24:40;;;;;;;10.38;2.85;;;;;;;-146.64;100.00;107460.16;5067916;28;20043;-75
2022/06/19 07:27:06;;;;;;;14.20;2.70;;;;;;;-146.64;100.00;104263.81;5065441;28;20395;-76
2022/06/19 07:29:31;;;;;;;15.93;2.90;;;;;;;-146.64;100.00;107193.69;5051685;28;20032;-75
2022/06/19 07:31:56;;;;;;;20.47;3.20;;;;;;;-146.64;100.00;104530.09;5063541;28;20130;-75
2022/06/19 07:34:22;;;;;;;9.50;2.00;;;;;;;-146.64;100.00;106660.84;5073433;28;20123;-76
2022/06/19 07:36:47;;;;;;;11.97;2.33;;;;;;;-146.64;100.00;106128.03;5062556;28;20024;-76
2022/06/19 07:39:13;;;;;;;14.50;2.63;;;;;;;-146.64;100.00;106394.44;5060254;28;20024;-75
2022/06/19 07:41:38;;;;;;;16.77;2.67;;;;;;;-146.64;100.00;104263.81;5068964;28;20157;-74
2022/06/19 07:44:04;;;;;;;11.63;2.27;;;;;;;-146.64;100.00;107193.69;5045574;28;20111;-72
2022/06/19 07:46:29;;;;;;;16.23;3.43;;;;;;;-146.64;100.00;101336.06;5068834;28;20399;-74
2022/06/19 07:51:38;;;;;;;10.95;2.42;;;;;;;-146.64;100.00;91769.03;5068645;28;20074;-74
2022/06/19 07:54:04;;;;;;;16.50;2.87;;;;;;;-146.64;100.00;94158.66;5053287;28;20032;-75
2022/06/19 07:56:29;;;;;;;12.33;2.47;;;;;;;-146.64;100.00;88585.03;5066438;28;20028;-74
2022/06/19 07:58:55;;;;;;;13.83;2.23;;;;;;;-146.64;100.00;85668.59;5067470;28;20033;-75
2022/06/19 08:01:20;;;;;;;16.43;2.63;;;;;;;-146.64;100.00;86728.88;5061508;28;20036;-73
2022/06/19 08:03:46;;;;;;;10.63;2.80;;;;;;;-146.64;100.00;85138.56;5043607;28;20131;-74
2022/06/19 08:06:13;;;;;;;16.60;2.97;;;;;;;-146.64;100.00;85403.56;5062120;28;20558;-74
2022/06/19 08:08:38;;;;;;;10.30;2.50;;;;;;;-146.64;100.00;87259.13;5076644;28;20422;-76
2022/06/19 08:11:04;;;;;;;13.40;2.60;;;;;;;-146.64;100.00;95752.53;5062581;28;20046;-76
2022/06/19 08:13:31;;;;;;;11.03;2.83;;;;;;;-146.64;100.00;93096.44;5069009;28;20051;-76
2022/06/19 08:15:59;;;;;;;;;;;;;;;-146.64;100.00;97878.69;5087839;28;20443;-76
2022/06/19 08:18:26;;;;;;;8.70;2.35;;;;;;;-146.64;100.00;93096.44;5075007;28;20015;-76
2022/06/19 08:20:53;;;;;;;16.30;2.55;;;;;;;-146.64;100.00;96283.97;5061804;28;20035;-75
2022/06/19 08:23:19;;;;;;;;;;;;;;;-146.64;100.00;101336.06;5053623;28;20479;-75
2022/06/19 08:25:45;;;;;;;10.15;2.53;;;;;;;-146.64;100.00;102400.44;5073594;28;19920;-76
2022/06/19 08:28:12;;;;;;;8.82;2.58;;;;;;;-146.64;100.00;101868.22;5059306;28;20063;-76
2022/06/19 08:30:45;;;;;;;12.23;2.20;;;;;;;-146.64;100.00;102932.75;5053625;28;20028;-77
2022/06/19 08:33:11;;;;;;;9.70;2.25;;;;;;;-146.64;100.00;102666.59;5070691;28;20658;-74
2022/06/19 08:35:45;;;;;;;12.13;2.37;;;;;;;-146.64;100.00;99208.09;5069741;28;20082;-75
2022/06/19 08:38:16;;;;;;;11.88;3.00;;;;;;;-146.64;100.00;94955.53;5052821;28;20032;-74
2022/06/19 08:41:03;;;;;;;12.73;2.78;;;;;;;-146.64;100.00;93627.50;5053270;28;20039;-75
2022/06/19 08:43:56;;;;;;;11.45;2.17;;;;;;;-146.64;100.00;91238.19;5089070;28;20147;-75
2022/06/19 08:46:55;;;;;;;9.90;2.28;;;;;;;-146.64;100.00;88585.03;5077459;28;20032;-75
2022/06/19 08:49:45;;;;;;;9.77;1.95;;;;;;;-146.64;100.00;85668.59;5105526;28;20028;-75
2022/06/19 08:52:27;;;;;;;15.70;2.45;;;;;;;-146.64;100.00;84873.56;5088412;28;20024;-75
2022/06/19 08:55:02;;;;;;;12.55;2.75;;;;;;;-146.64;100.00;85403.56;5104872;28;20024;-76
2022/06/19 08:57:33;;;;;;;10.95;2.50;;;;;;;-146.64;100.00;82489.44;5089644;28;20111;-75
2022/06/19 09:00:11;;;;;;;13.80;2.63;;;;;;;-146.64;100.00;78254.47;5088127;28;20070;-75
2022/06/19 09:03:14;;;;;;;11.55;2.40;;;;;;;-146.64;100.00;72967.03;5093238;28;20028;-76
2022/06/19 09:05:58;;;;;;;18.05;2.92;;;;;;;-146.64;100.00;50573.31;5093185;28;20046;-76
2022/06/19 09:08:40;;;;;;;12.05;2.63;;;;;;;-146.64;100.00;42257.34;5092894;28;20429;-74
2022/06/19 09:11:13;;;;;;;17.65;3.22;;;;;;;-146.64;100.00;36334.50;5091379;28;20550;-76
2022/06/19 09:13:51;;;;;;;15.30;3.88;;;;;;;-146.64;100.00;35459.31;5093328;28;20032;-74
2022/06/19 09:16:26;;;;;;;12.02;2.50;;;;;;;-146.64;100.00;34142.84;5091609;28;20089;-76
2022/06/19 09:18:51;;;;;;;16.70;2.70;;;;;;;-146.64;100.00;34379.94;5091437;28;20509;-77
2022/06/19 09:21:32;;;;;;;17.90;3.30;;;;;;;-146.64;100.00;34306.34;5091404;28;20025;-77
2022/06/19 09:24:22;;;;;;;12.98;2.40;;;;;;;-146.64;100.00;34118.31;5092832;28;20035;-74
2022/06/19 09:26:56;;;;;;;12.93;3.03;;;;;;;-146.64;100.00;34400.38;5092620;28;20032;-76
2022/06/19 09:29:32;;;;;;;16.38;3.42;;;;;;;-146.64;100.00;34811.25;5091498;28;20497;-76
2022/06/19 09:32:02;;;;;;;12.60;2.95;;;;;;;-146.64;100.00;34794.91;5091201;28;20035;-76
2022/06/19 09:34:36;;;;;;;12.63;2.47;;;;;;;-146.64;100.00;34919.59;5091374;28;20106;-77
2022/06/19 09:37:21;;;;;;;15.23;3.22;;;;;;;-146.64;100.00;34633.41;5090899;28;20412;-77
2022/06/19 09:40:28;;;;;;;11.35;2.30;;;;;;;-146.64;100.00;34958.44;5091039;28;20036;-76
2022/06/19 09:42:58;;;;;;;15.75;3.08;;;;;;;-146.64;100.00;35132.22;5091705;28;20127;-76
2022/06/19 09:45:27;;;;;;;9.68;2.08;;;;;;;-146.64;100.00;35451.16;5091196;28;20367;-78
2022/06/19 09:48:04;;;;;;;10.05;2.85;;;;;;;-146.64;100.00;34657.94;5090744;28;20111;-77
2022/06/19 09:50:35;;;;;;;7.25;2.40;;;;;;;-146.64;100.00;35880.53;5091122;28;20477;-77
2022/06/19 09:53:14;;;;;;;10.45;2.97;;;;;;;-146.64;100.00;35790.56;5090457;28;20028;-76
2022/06/19 09:55:43;;;;;;;12.90;2.85;;;;;;;-146.64;100.00;36031.84;5091128;28;20036;-76
2022/06/19 09:58:24;;;;;;;13.10;2.30;;;;;;;-146.64;100.00;35653.56;5090586;28;20127;-77
2022/06/19 10:00:52;;;;;;;11.63;2.28;;;;;;;-146.64;100.00;35426.63;5090741;28;20028;-76
2022/06/19 10:03:39;;;;;;;12.80;2.42;;;;;;;-146.64;100.00;35680.16;5107828;28;20122;-76
2022/06/19 10:06:15;;;;;;;9.70;2.67;;;;;;;-146.64;100.00;35860.09;5091860;28;20032;-76
2022/06/19 10:08:52;;;;;;;9.32;2.50;;;;;;;-146.64;100.00;36060.47;5090737;28;20047;-75
2022/06/19 10:11:38;;;;;;;15.15;2.55;;;;;;;-146.64;100.00;36134.09;5090780;28;20028;-76
2022/06/19 10:14:45;;;;;;;11.55;2.08;;;;;;;-146.64;100.00;36559.47;5089301;28;20566;-73
2022/06/19 10:17:19;;;;;;;11.07;2.38;;;;;;;-146.64;100.00;37036.03;5081434;28;20105;-74
2022/06/19 10:19:52;;;;;;;8.05;2.13;;;;;;;-146.64;100.00;36901.03;5090583;28;20028;-74
2022/06/19 10:22:24;;;;;;;8.90;2.38;;;;;;;-146.64;100.00;36956.25;5090666;28;20494;-74
2022/06/19 10:25:12;;;;;;;9.40;2.78;;;;;;;-146.64;100.00;36706.72;5090376;28;20024;-74
2022/06/19 10:28:10;;;;;;;7.15;2.88;;;;;;;-146.64;100.00;36792.63;5090567;28;20110;-74
2022/06/19 10:31:02;;;;;;;8.38;1.85;;;;;;;-146.64;100.00;36858.06;5091675;28;20387;-74
2022/06/19 10:33:56;;;;;;;9.00;2.35;;;;;;;-146.64;100.00;37050.34;5091964;28;20380;-73
2022/06/19 10:36:48;;;;;;;6.35;1.73;;;;;;;-146.64;100.00;36964.44;5090531;28;20028;-73
2022/06/19 10:39:13;;;;;;;14.15;3.45;;;;;;;-146.64;100.00;36870.34;5089940;28;20039;-72
2022/06/19 10:42:04;;;;;;;10.17;2.77;;;;;;;-146.64;100.00;36960.34;5091659;28;20395;-72
2022/06/19 10:44:48;;;;;;;11.73;2.42;;;;;;;-146.64;100.00;37242.63;5090318;28;20483;-72
2022/06/19 10:47:51;;;;;;;11.15;2.63;;;;;;;-146.64;100.00;37144.44;5091424;28;20293;-72
2022/06/19 10:50:32;;;;;;;16.33;3.35;;;;;;;-146.64;100.00;37261.03;5084532;28;20399;-72
2022/06/19 10:53:30;;;;;;;13.57;2.90;;;;;;;-146.64;100.00;37248.75;5090067;28;20524;-75
2022/06/19 10:56:14;;;;;;;13.95;3.10;;;;;;;-146.64;100.00;37226.25;5072691;28;20433;-76
2022/06/19 10:58:40;;;;;;;13.50;2.95;;;;;;;-146.64;100.00;37367.41;5091042;28;20181;-76
2022/06/19 11:01:08;;;;;;;15.85;3.28;;;;;;;-146.64;100.00;37123.97;5089725;28;20028;-77
2022/06/19 11:06:37;;;;;;;13.55;2.58;;;;;;;-146.64;100.00;37078.97;5090139;28;20128;-73
2022/06/19 11:09:04;;;;;;;;;;;;;;;-146.64;100.00;37205.78;5089910;28;20132;-76
2022/06/19 11:11:29;;;;;;;9.70;2.33;;;;;;;-146.64;100.00;37099.44;5089542;28;19916;-75
2022/06/19 11:14:07;;;;;;;11.60;2.70;;;;;;;-146.64;100.00;37091.25;5089427;28;20352;-74
2022/06/19 11:16:33;;;;;;;12.55;2.33;;;;;;;-146.64;100.00;37289.66;5089462;28;20388;-76
2022/06/19 11:18:59;;;;;;;16.23;2.33;;;;;;;-146.64;100.00;37134.22;5090590;28;20024;-73
2022/06/19 11:21:28;;;;;;;11.40;2.27;;;;;;;-146.64;100.00;37111.72;5089634;28;20031;-74
2022/06/19 11:23:57;;;;;;;9.85;3.65;;;;;;;-146.64;100.00;37201.72;5088887;28;20023;-74